sensor_id;sensor_type;location;lat;lon;timestamp;P1;durP1;ratioP1;P2;durP2;ratioP2
74293;SDS011;64044;59.904;10.738;2022-10-16T00:00:29;0.52;;;0.20;;
74293;SDS011;64044;59.904;10.738;2022-10-16T00:02:55;0.10;;;0.10;;
74293;SDS011;64044;59.904;10.738;2022-10-16T00:05:20;0.60;;;0.32;;
74293;SDS011;64044;59.904;10.738;2022-10-16T00:07:46;2.00;;;0.10;;
74293;SDS011;64044;59.904;10.738;2022-10-16T00:10:11;0.45;;;0.10;;
74293;SDS011;64044;59.904;10.738;2022-10-16T00:12:37;0.40;;;0.20;;
74293;SDS011;64044;59.904;10.738;2022-10-16T00:15:03;0.30;;;0.15;;
74293;SDS011;64044;59.904;10.738;2022-10-16T00:17:29;1.65;;;0.20;;
74293;SDS011;64044;59.904;10.738;2022-10-16T00:19:55;1.00;;;0.28;;
74293;SDS011;64044;59.904;10.738;2022-10-16T00:22:21;0.65;;;0.30;;
74293;SDS011;64044;59.904;10.738;2022-10-16T00:24:47;0.32;;;0.20;;
74293;SDS011;64044;59.904;10.738;2022-10-16T00:27:13;0.57;;;0.10;;
74293;SDS011;64044;59.904;10.738;2022-10-16T00:29:38;2.20;;;0.20;;
74293;SDS011;64044;59.904;10.738;2022-10-16T00:32:04;1.70;;;0.28;;
74293;SDS011;64044;59.904;10.738;2022-10-16T00:34:29;0.55;;;0.13;;
74293;SDS011;64044;59.904;10.738;2022-10-16T00:36:55;1.55;;;0.10;;
74293;SDS011;64044;59.904;10.738;2022-10-16T00:39:21;1.98;;;0.20;;
74293;SDS011;64044;59.904;10.738;2022-10-16T00:41:47;0.30;;;0.10;;
74293;SDS011;64044;59.904;10.738;2022-10-16T00:47:10;0.55;;;0.10;;
74293;SDS011;64044;59.904;10.738;2022-10-16T00:49:40;0.22;;;0.17;;
74293;SDS011;64044;59.904;10.738;2022-10-16T00:52:06;0.30;;;0.28;;
74293;SDS011;64044;59.904;10.738;2022-10-16T00:54:32;0.40;;;0.10;;
74293;SDS011;64044;59.904;10.738;2022-10-16T00:57:00;0.32;;;0.20;;
74293;SDS011;64044;59.904;10.738;2022-10-16T00:59:29;2.67;;;0.70;;
74293;SDS011;64044;59.904;10.738;2022-10-16T01:01:57;0.10;;;0.10;;
74293;SDS011;64044;59.904;10.738;2022-10-16T01:04:23;0.63;;;0.10;;
74293;SDS011;64044;59.904;10.738;2022-10-16T01:06:52;0.10;;;0.10;;
74293;SDS011;64044;59.904;10.738;2022-10-16T01:09:50;0.93;;;0.40;;
74293;SDS011;64044;59.904;10.738;2022-10-16T01:15:03;5.63;;;0.70;;
74293;SDS011;64044;59.904;10.738;2022-10-16T01:17:51;2.45;;;0.45;;
74293;SDS011;64044;59.904;10.738;2022-10-16T01:20:45;0.40;;;0.08;;
74293;SDS011;64044;59.904;10.738;2022-10-16T01:28:35;4.55;;;0.43;;
74293;SDS011;64044;59.904;10.738;2022-10-16T01:31:26;0.45;;;0.15;;
74293;SDS011;64044;59.904;10.738;2022-10-16T01:34:05;0.20;;;0.10;;
74293;SDS011;64044;59.904;10.738;2022-10-16T01:39:37;0.00;;;0.00;;
74293;SDS011;64044;59.904;10.738;2022-10-16T01:42:09;0.08;;;0.08;;
74293;SDS011;64044;59.904;10.738;2022-10-16T01:44:39;0.00;;;0.00;;
74293;SDS011;64044;59.904;10.738;2022-10-16T01:47:08;0.57;;;0.15;;
74293;SDS011;64044;59.904;10.738;2022-10-16T01:49:36;0.00;;;0.00;;
74293;SDS011;64044;59.904;10.738;2022-10-16T01:52:06;0.38;;;0.10;;
74293;SDS011;64044;59.904;10.738;2022-10-16T01:54:35;0.15;;;0.15;;
74293;SDS011;64044;59.904;10.738;2022-10-16T01:57:03;0.30;;;0.00;;
74293;SDS011;64044;59.904;10.738;2022-10-16T01:59:31;0.15;;;0.15;;
74293;SDS011;64044;59.904;10.738;2022-10-16T02:02:01;0.08;;;0.08;;
74293;SDS011;64044;59.904;10.738;2022-10-16T02:04:32;0.00;;;0.00;;
74293;SDS011;64044;59.904;10.738;2022-10-16T02:07:03;0.10;;;0.00;;
74293;SDS011;64044;59.904;10.738;2022-10-16T02:09:30;0.10;;;0.10;;
74293;SDS011;64044;59.904;10.738;2022-10-16T02:11:58;1.35;;;0.20;;
74293;SDS011;64044;59.904;10.738;2022-10-16T02:14:27;0.35;;;0.10;;
74293;SDS011;64044;59.904;10.738;2022-10-16T02:16:53;0.13;;;0.00;;
74293;SDS011;64044;59.904;10.738;2022-10-16T02:19:19;0.10;;;0.10;;
74293;SDS011;64044;59.904;10.738;2022-10-16T02:22:00;0.00;;;0.00;;
74293;SDS011;64044;59.904;10.738;2022-10-16T02:27:33;1.45;;;0.10;;
74293;SDS011;64044;59.904;10.738;2022-10-16T02:32:50;0.80;;;0.20;;
74293;SDS011;64044;59.904;10.738;2022-10-16T02:35:18;0.28;;;0.25;;
74293;SDS011;64044;59.904;10.738;2022-10-16T02:37:46;0.10;;;0.10;;
74293;SDS011;64044;59.904;10.738;2022-10-16T02:40:13;0.95;;;0.10;;
74293;SDS011;64044;59.904;10.738;2022-10-16T02:42:40;0.45;;;0.10;;
74293;SDS011;64044;59.904;10.738;2022-10-16T02:45:06;0.10;;;0.10;;
74293;SDS011;64044;59.904;10.738;2022-10-16T02:47:33;0.00;;;0.00;;
74293;SDS011;64044;59.904;10.738;2022-10-16T02:49:59;0.82;;;0.10;;
74293;SDS011;64044;59.904;10.738;2022-10-16T02:52:25;0.28;;;0.28;;
74293;SDS011;64044;59.904;10.738;2022-10-16T02:54:50;0.32;;;0.15;;
74293;SDS011;64044;59.904;10.738;2022-10-16T02:57:16;0.17;;;0.17;;
74293;SDS011;64044;59.904;10.738;2022-10-16T02:59:43;0.63;;;0.38;;
74293;SDS011;64044;59.904;10.738;2022-10-16T03:02:09;0.40;;;0.28;;
74293;SDS011;64044;59.904;10.738;2022-10-16T03:04:35;1.13;;;0.13;;
74293;SDS011;64044;59.904;10.738;2022-10-16T03:07:00;0.40;;;0.38;;
74293;SDS011;64044;59.904;10.738;2022-10-16T03:09:26;1.35;;;0.20;;
74293;SDS011;64044;59.904;10.738;2022-10-16T03:11:51;0.40;;;0.30;;
74293;SDS011;64044;59.904;10.738;2022-10-16T03:14:17;2.25;;;1.38;;
74293;SDS011;64044;59.904;10.738;2022-10-16T03:16:43;1.20;;;0.55;;
74293;SDS011;64044;59.904;10.738;2022-10-16T03:19:08;0.43;;;0.43;;
74293;SDS011;64044;59.904;10.738;2022-10-16T03:21:34;1.05;;;0.70;;
74293;SDS011;64044;59.904;10.738;2022-10-16T03:23:59;0.70;;;0.40;;
74293;SDS011;64044;59.904;10.738;2022-10-16T03:26:25;1.00;;;0.90;;
74293;SDS011;64044;59.904;10.738;2022-10-16T03:28:51;0.30;;;0.30;;
74293;SDS011;64044;59.904;10.738;2022-10-16T03:31:16;0.95;;;0.20;;
74293;SDS011;64044;59.904;10.738;2022-10-16T03:33:42;0.20;;;0.20;;
74293;SDS011;64044;59.904;10.738;2022-10-16T03:36:07;0.30;;;0.17;;
74293;SDS011;64044;59.904;10.738;2022-10-16T03:38:33;0.10;;;0.10;;
74293;SDS011;64044;59.904;10.738;2022-10-16T03:40:58;0.10;;;0.10;;
74293;SDS011;64044;59.904;10.738;2022-10-16T03:43:24;0.20;;;0.05;;
74293;SDS011;64044;59.904;10.738;2022-10-16T03:45:50;0.00;;;0.00;;
74293;SDS011;64044;59.904;10.738;2022-10-16T03:48:16;0.25;;;0.15;;
74293;SDS011;64044;59.904;10.738;2022-10-16T03:50:43;0.10;;;0.10;;
74293;SDS011;64044;59.904;10.738;2022-10-16T03:53:09;1.27;;;0.70;;
74293;SDS011;64044;59.904;10.738;2022-10-16T03:55:35;0.10;;;0.10;;
74293;SDS011;64044;59.904;10.738;2022-10-16T03:58:01;0.20;;;0.10;;
74293;SDS011;64044;59.904;10.738;2022-10-16T04:00:26;0.00;;;0.00;;
74293;SDS011;64044;59.904;10.738;2022-10-16T04:02:52;1.25;;;0.25;;
74293;SDS011;64044;59.904;10.738;2022-10-16T04:05:18;0.10;;;0.10;;
74293;SDS011;64044;59.904;10.738;2022-10-16T04:07:43;0.30;;;0.10;;
74293;SDS011;64044;59.904;10.738;2022-10-16T04:10:09;0.20;;;0.20;;
74293;SDS011;64044;59.904;10.738;2022-10-16T04:12:35;0.35;;;0.20;;
74293;SDS011;64044;59.904;10.738;2022-10-16T04:15:01;0.45;;;0.20;;
74293;SDS011;64044;59.904;10.738;2022-10-16T04:17:27;0.32;;;0.17;;
74293;SDS011;64044;59.904;10.738;2022-10-16T04:19:52;0.60;;;0.28;;
74293;SDS011;64044;59.904;10.738;2022-10-16T04:22:18;1.17;;;0.22;;
74293;SDS011;64044;59.904;10.738;2022-10-16T04:24:43;2.10;;;0.20;;
74293;SDS011;64044;59.904;10.738;2022-10-16T04:27:09;0.28;;;0.28;;
74293;SDS011;64044;59.904;10.738;2022-10-16T04:29:34;0.15;;;0.15;;
74293;SDS011;64044;59.904;10.738;2022-10-16T04:32:00;0.20;;;0.20;;
74293;SDS011;64044;59.904;10.738;2022-10-16T04:34:26;0.75;;;0.30;;
74293;SDS011;64044;59.904;10.738;2022-10-16T04:36:51;0.20;;;0.10;;
74293;SDS011;64044;59.904;10.738;2022-10-16T04:39:17;0.20;;;0.20;;
74293;SDS011;64044;59.904;10.738;2022-10-16T04:41:43;0.47;;;0.25;;
74293;SDS011;64044;59.904;10.738;2022-10-16T04:44:08;0.20;;;0.20;;
74293;SDS011;64044;59.904;10.738;2022-10-16T04:46:34;0.22;;;0.20;;
74293;SDS011;64044;59.904;10.738;2022-10-16T04:49:00;0.20;;;0.20;;
74293;SDS011;64044;59.904;10.738;2022-10-16T04:51:25;0.20;;;0.20;;
74293;SDS011;64044;59.904;10.738;2022-10-16T04:53:52;0.20;;;0.20;;
74293;SDS011;64044;59.904;10.738;2022-10-16T04:56:19;0.88;;;0.40;;
74293;SDS011;64044;59.904;10.738;2022-10-16T04:58:45;0.55;;;0.20;;
74293;SDS011;64044;59.904;10.738;2022-10-16T05:01:11;1.30;;;0.47;;
74293;SDS011;64044;59.904;10.738;2022-10-16T05:03:36;0.40;;;0.38;;
74293;SDS011;64044;59.904;10.738;2022-10-16T05:06:04;0.70;;;0.30;;
74293;SDS011;64044;59.904;10.738;2022-10-16T05:08:30;0.60;;;0.50;;
74293;SDS011;64044;59.904;10.738;2022-10-16T05:10:56;0.90;;;0.70;;
74293;SDS011;64044;59.904;10.738;2022-10-16T05:13:21;0.88;;;0.60;;
74293;SDS011;64044;59.904;10.738;2022-10-16T05:15:48;0.60;;;0.60;;
74293;SDS011;64044;59.904;10.738;2022-10-16T05:18:14;0.40;;;0.40;;
74293;SDS011;64044;59.904;10.738;2022-10-16T05:20:41;0.93;;;0.60;;
74293;SDS011;64044;59.904;10.738;2022-10-16T05:23:07;1.05;;;0.80;;
74293;SDS011;64044;59.904;10.738;2022-10-16T05:25:35;0.93;;;0.70;;
74293;SDS011;64044;59.904;10.738;2022-10-16T05:28:01;0.95;;;0.43;;
74293;SDS011;64044;59.904;10.738;2022-10-16T05:30:26;1.23;;;0.60;;
74293;SDS011;64044;59.904;10.738;2022-10-16T05:32:52;0.65;;;0.60;;
74293;SDS011;64044;59.904;10.738;2022-10-16T05:35:18;3.42;;;0.50;;
74293;SDS011;64044;59.904;10.738;2022-10-16T05:37:44;1.80;;;0.40;;
74293;SDS011;64044;59.904;10.738;2022-10-16T05:40:11;0.70;;;0.30;;
74293;SDS011;64044;59.904;10.738;2022-10-16T05:42:37;0.75;;;0.55;;
74293;SDS011;64044;59.904;10.738;2022-10-16T05:45:04;0.40;;;0.40;;
74293;SDS011;64044;59.904;10.738;2022-10-16T05:47:37;1.50;;;0.93;;
74293;SDS011;64044;59.904;10.738;2022-10-16T05:50:03;1.23;;;0.80;;
74293;SDS011;64044;59.904;10.738;2022-10-16T05:52:29;0.90;;;0.50;;
74293;SDS011;64044;59.904;10.738;2022-10-16T05:54:54;0.38;;;0.38;;
74293;SDS011;64044;59.904;10.738;2022-10-16T05:57:20;0.65;;;0.65;;
74293;SDS011;64044;59.904;10.738;2022-10-16T05:59:46;0.40;;;0.40;;
74293;SDS011;64044;59.904;10.738;2022-10-16T06:02:12;1.33;;;0.80;;
74293;SDS011;64044;59.904;10.738;2022-10-16T06:04:38;0.55;;;0.55;;
74293;SDS011;64044;59.904;10.738;2022-10-16T06:07:04;0.65;;;0.45;;
74293;SDS011;64044;59.904;10.738;2022-10-16T06:09:30;2.92;;;1.40;;
74293;SDS011;64044;59.904;10.738;2022-10-16T06:11:55;1.10;;;1.00;;
74293;SDS011;64044;59.904;10.738;2022-10-16T06:14:21;2.63;;;0.60;;
74293;SDS011;64044;59.904;10.738;2022-10-16T06:16:46;0.65;;;0.60;;
74293;SDS011;64044;59.904;10.738;2022-10-16T06:19:12;0.57;;;0.50;;
74293;SDS011;64044;59.904;10.738;2022-10-16T06:21:38;0.95;;;0.60;;
74293;SDS011;64044;59.904;10.738;2022-10-16T06:24:03;1.27;;;0.95;;
74293;SDS011;64044;59.904;10.738;2022-10-16T06:26:30;3.88;;;1.40;;
74293;SDS011;64044;59.904;10.738;2022-10-16T06:28:56;1.73;;;1.10;;
74293;SDS011;64044;59.904;10.738;2022-10-16T06:31:23;1.67;;;1.00;;
74293;SDS011;64044;59.904;10.738;2022-10-16T06:33:52;1.02;;;0.88;;
74293;SDS011;64044;59.904;10.738;2022-10-16T06:36:19;0.60;;;0.57;;
74293;SDS011;64044;59.904;10.738;2022-10-16T06:38:45;0.70;;;0.60;;
74293;SDS011;64044;59.904;10.738;2022-10-16T06:41:12;0.55;;;0.55;;
74293;SDS011;64044;59.904;10.738;2022-10-16T06:43:39;0.80;;;0.65;;
74293;SDS011;64044;59.904;10.738;2022-10-16T06:46:05;1.05;;;0.70;;
74293;SDS011;64044;59.904;10.738;2022-10-16T06:48:34;0.80;;;0.68;;
74293;SDS011;64044;59.904;10.738;2022-10-16T06:51:00;0.95;;;0.50;;
74293;SDS011;64044;59.904;10.738;2022-10-16T06:55:57;0.60;;;0.60;;
74293;SDS011;64044;59.904;10.738;2022-10-16T06:58:23;1.00;;;0.70;;
74293;SDS011;64044;59.904;10.738;2022-10-16T07:00:49;1.05;;;0.95;;
74293;SDS011;64044;59.904;10.738;2022-10-16T07:03:19;1.30;;;0.80;;
74293;SDS011;64044;59.904;10.738;2022-10-16T07:05:45;0.77;;;0.77;;
74293;SDS011;64044;59.904;10.738;2022-10-16T07:08:10;0.68;;;0.60;;
74293;SDS011;64044;59.904;10.738;2022-10-16T07:10:36;0.68;;;0.68;;
74293;SDS011;64044;59.904;10.738;2022-10-16T07:13:02;3.10;;;0.68;;
74293;SDS011;64044;59.904;10.738;2022-10-16T07:15:27;0.77;;;0.70;;
74293;SDS011;64044;59.904;10.738;2022-10-16T07:17:53;1.02;;;0.90;;
74293;SDS011;64044;59.904;10.738;2022-10-16T07:20:19;0.85;;;0.85;;
74293;SDS011;64044;59.904;10.738;2022-10-16T07:22:45;1.33;;;1.00;;
74293;SDS011;64044;59.904;10.738;2022-10-16T07:25:11;1.33;;;0.77;;
74293;SDS011;64044;59.904;10.738;2022-10-16T07:27:36;2.08;;;0.90;;
74293;SDS011;64044;59.904;10.738;2022-10-16T07:30:02;2.40;;;1.30;;
74293;SDS011;64044;59.904;10.738;2022-10-16T07:32:29;1.05;;;0.85;;
74293;SDS011;64044;59.904;10.738;2022-10-16T07:34:55;2.55;;;1.23;;
74293;SDS011;64044;59.904;10.738;2022-10-16T07:37:21;1.73;;;1.50;;
74293;SDS011;64044;59.904;10.738;2022-10-16T07:39:47;1.52;;;1.20;;
74293;SDS011;64044;59.904;10.738;2022-10-16T07:42:12;1.70;;;1.60;;
74293;SDS011;64044;59.904;10.738;2022-10-16T07:44:38;2.03;;;1.80;;
74293;SDS011;64044;59.904;10.738;2022-10-16T07:47:04;1.90;;;1.73;;
74293;SDS011;64044;59.904;10.738;2022-10-16T07:49:30;1.73;;;1.60;;
74293;SDS011;64044;59.904;10.738;2022-10-16T07:51:56;1.73;;;1.63;;
74293;SDS011;64044;59.904;10.738;2022-10-16T07:54:21;3.40;;;1.98;;
74293;SDS011;64044;59.904;10.738;2022-10-16T07:56:47;8.18;;;2.42;;
74293;SDS011;64044;59.904;10.738;2022-10-16T07:59:13;2.65;;;1.88;;
74293;SDS011;64044;59.904;10.738;2022-10-16T08:01:38;2.55;;;2.20;;
74293;SDS011;64044;59.904;10.738;2022-10-16T08:04:04;2.97;;;2.08;;
74293;SDS011;64044;59.904;10.738;2022-10-16T08:06:34;2.67;;;2.17;;
74293;SDS011;64044;59.904;10.738;2022-10-16T08:09:01;2.42;;;1.90;;
74293;SDS011;64044;59.904;10.738;2022-10-16T08:11:27;4.30;;;3.00;;
74293;SDS011;64044;59.904;10.738;2022-10-16T08:13:53;4.07;;;2.72;;
74293;SDS011;64044;59.904;10.738;2022-10-16T08:16:19;3.30;;;2.40;;
74293;SDS011;64044;59.904;10.738;2022-10-16T08:18:44;5.07;;;3.10;;
74293;SDS011;64044;59.904;10.738;2022-10-16T08:21:13;13.05;;;4.30;;
74293;SDS011;64044;59.904;10.738;2022-10-16T08:23:40;8.80;;;3.03;;
74293;SDS011;64044;59.904;10.738;2022-10-16T08:26:06;5.03;;;2.88;;
74293;SDS011;64044;59.904;10.738;2022-10-16T08:28:33;6.30;;;3.80;;
74293;SDS011;64044;59.904;10.738;2022-10-16T08:31:13;5.07;;;3.40;;
74293;SDS011;64044;59.904;10.738;2022-10-16T08:33:40;6.10;;;3.97;;
74293;SDS011;64044;59.904;10.738;2022-10-16T08:36:08;4.50;;;3.03;;
74293;SDS011;64044;59.904;10.738;2022-10-16T08:38:35;8.35;;;3.53;;
74293;SDS011;64044;59.904;10.738;2022-10-16T08:46:29;8.52;;;4.35;;
74293;SDS011;64044;59.904;10.738;2022-10-16T08:49:08;5.50;;;4.15;;
74293;SDS011;64044;59.904;10.738;2022-10-16T08:51:37;5.88;;;3.50;;
74293;SDS011;64044;59.904;10.738;2022-10-16T08:56:31;5.82;;;3.25;;
74293;SDS011;64044;59.904;10.738;2022-10-16T08:58:58;6.95;;;3.83;;
74293;SDS011;64044;59.904;10.738;2022-10-16T09:01:25;7.53;;;3.65;;
74293;SDS011;64044;59.904;10.738;2022-10-16T09:07:04;5.10;;;2.60;;
74293;SDS011;64044;59.904;10.738;2022-10-16T09:21:23;7.22;;;3.58;;
74293;SDS011;64044;59.904;10.738;2022-10-16T09:23:53;6.78;;;3.42;;
74293;SDS011;64044;59.904;10.738;2022-10-16T09:26:22;6.47;;;3.08;;
74293;SDS011;64044;59.904;10.738;2022-10-16T09:28:47;7.05;;;3.13;;
74293;SDS011;64044;59.904;10.738;2022-10-16T09:31:14;7.18;;;3.22;;
74293;SDS011;64044;59.904;10.738;2022-10-16T09:33:42;6.68;;;2.65;;
74293;SDS011;64044;59.904;10.738;2022-10-16T09:36:10;6.82;;;3.00;;
74293;SDS011;64044;59.904;10.738;2022-10-16T09:38:38;5.97;;;2.92;;
74293;SDS011;64044;59.904;10.738;2022-10-16T09:41:24;5.63;;;3.35;;
74293;SDS011;64044;59.904;10.738;2022-10-16T09:46:35;8.55;;;3.28;;
74293;SDS011;64044;59.904;10.738;2022-10-16T09:51:48;8.40;;;3.67;;
74293;SDS011;64044;59.904;10.738;2022-10-16T09:54:18;5.82;;;3.17;;
74293;SDS011;64044;59.904;10.738;2022-10-16T09:56:46;6.15;;;2.67;;
74293;SDS011;64044;59.904;10.738;2022-10-16T09:59:19;5.20;;;2.13;;
74293;SDS011;64044;59.904;10.738;2022-10-16T10:01:50;4.75;;;3.00;;
74293;SDS011;64044;59.904;10.738;2022-10-16T10:04:18;10.10;;;3.00;;
74293;SDS011;64044;59.904;10.738;2022-10-16T10:06:46;8.13;;;2.65;;
74293;SDS011;64044;59.904;10.738;2022-10-16T10:12:04;5.28;;;2.50;;
74293;SDS011;64044;59.904;10.738;2022-10-16T10:14:43;6.13;;;2.55;;
74293;SDS011;64044;59.904;10.738;2022-10-16T10:17:16;6.50;;;2.58;;
74293;SDS011;64044;59.904;10.738;2022-10-16T10:19:46;9.18;;;2.22;;
74293;SDS011;64044;59.904;10.738;2022-10-16T10:22:17;9.40;;;3.15;;
74293;SDS011;64044;59.904;10.738;2022-10-16T10:24:44;5.18;;;3.10;;
74293;SDS011;64044;59.904;10.738;2022-10-16T10:33:21;6.07;;;3.35;;
74293;SDS011;64044;59.904;10.738;2022-10-16T10:36:12;7.13;;;3.05;;
74293;SDS011;64044;59.904;10.738;2022-10-16T10:41:38;6.20;;;2.70;;
74293;SDS011;64044;59.904;10.738;2022-10-16T10:46:50;6.82;;;2.92;;
74293;SDS011;64044;59.904;10.738;2022-10-16T11:06:22;5.55;;;2.67;;
74293;SDS011;64044;59.904;10.738;2022-10-16T11:12:28;2.80;;;1.90;;
74293;SDS011;64044;59.904;10.738;2022-10-16T11:15:01;3.55;;;1.80;;
74293;SDS011;64044;59.904;10.738;2022-10-16T11:17:37;4.07;;;1.90;;
74293;SDS011;64044;59.904;10.738;2022-10-16T11:25:59;6.18;;;1.52;;
74293;SDS011;64044;59.904;10.738;2022-10-16T11:28:42;3.92;;;1.20;;
74293;SDS011;64044;59.904;10.738;2022-10-16T11:37:17;7.30;;;2.55;;
74293;SDS011;64044;59.904;10.738;2022-10-16T11:39:44;10.13;;;2.55;;
74293;SDS011;64044;59.904;10.738;2022-10-16T11:47:36;12.43;;;1.60;;
74293;SDS011;64044;59.904;10.738;2022-10-16T11:55:59;12.52;;;2.92;;
74293;SDS011;64044;59.904;10.738;2022-10-16T11:58:32;10.00;;;2.95;;
74293;SDS011;64044;59.904;10.738;2022-10-16T12:04:14;10.48;;;1.65;;
74293;SDS011;64044;59.904;10.738;2022-10-16T12:07:06;10.98;;;2.03;;
74293;SDS011;64044;59.904;10.738;2022-10-16T12:09:39;11.70;;;2.58;;
74293;SDS011;64044;59.904;10.738;2022-10-16T12:15:48;9.75;;;1.60;;
74293;SDS011;64044;59.904;10.738;2022-10-16T12:20:57;6.22;;;1.42;;
74293;SDS011;64044;59.904;10.738;2022-10-16T12:23:24;8.95;;;1.45;;
74293;SDS011;64044;59.904;10.738;2022-10-16T12:25:57;5.50;;;1.35;;
74293;SDS011;64044;59.904;10.738;2022-10-16T12:28:27;6.80;;;1.65;;
74293;SDS011;64044;59.904;10.738;2022-10-16T12:33:23;9.20;;;3.30;;
74293;SDS011;64044;59.904;10.738;2022-10-16T12:35:53;10.18;;;2.55;;
74293;SDS011;64044;59.904;10.738;2022-10-16T12:38:21;12.63;;;2.35;;
74293;SDS011;64044;59.904;10.738;2022-10-16T12:41:03;5.70;;;1.83;;
74293;SDS011;64044;59.904;10.738;2022-10-16T12:43:38;5.32;;;1.63;;
74293;SDS011;64044;59.904;10.738;2022-10-16T12:46:06;10.15;;;3.60;;
74293;SDS011;64044;59.904;10.738;2022-10-16T12:51:49;6.00;;;1.65;;
74293;SDS011;64044;59.904;10.738;2022-10-16T13:22:03;6.90;;;0.98;;
74293;SDS011;64044;59.904;10.738;2022-10-16T13:32:39;2.70;;;0.65;;
74293;SDS011;64044;59.904;10.738;2022-10-16T13:35:18;4.95;;;0.85;;
74293;SDS011;64044;59.904;10.738;2022-10-16T13:37:48;1.58;;;1.13;;
74293;SDS011;64044;59.904;10.738;2022-10-16T13:40:19;1.95;;;0.60;;
74293;SDS011;64044;59.904;10.738;2022-10-16T13:42:47;2.72;;;0.82;;
74293;SDS011;64044;59.904;10.738;2022-10-16T13:45:17;6.13;;;1.00;;
74293;SDS011;64044;59.904;10.738;2022-10-16T13:47:44;8.88;;;1.05;;
74293;SDS011;64044;59.904;10.738;2022-10-16T13:50:11;3.47;;;0.65;;
74293;SDS011;64044;59.904;10.738;2022-10-16T13:52:38;3.55;;;0.63;;
74293;SDS011;64044;59.904;10.738;2022-10-16T13:55:14;4.47;;;0.90;;
74293;SDS011;64044;59.904;10.738;2022-10-16T13:57:41;3.85;;;0.77;;
74293;SDS011;64044;59.904;10.738;2022-10-16T14:00:24;3.67;;;0.68;;
74293;SDS011;64044;59.904;10.738;2022-10-16T14:03:00;2.25;;;0.65;;
74293;SDS011;64044;59.904;10.738;2022-10-16T14:05:29;5.20;;;1.50;;
74293;SDS011;64044;59.904;10.738;2022-10-16T14:07:55;2.95;;;0.68;;
74293;SDS011;64044;59.904;10.738;2022-10-16T14:10:29;2.63;;;0.45;;
74293;SDS011;64044;59.904;10.738;2022-10-16T14:15:31;1.30;;;0.60;;
74293;SDS011;64044;59.904;10.738;2022-10-16T14:17:58;1.73;;;0.90;;
74293;SDS011;64044;59.904;10.738;2022-10-16T14:20:26;1.92;;;0.70;;
74293;SDS011;64044;59.904;10.738;2022-10-16T14:23:00;1.13;;;0.60;;
74293;SDS011;64044;59.904;10.738;2022-10-16T14:25:43;3.22;;;0.47;;
74293;SDS011;64044;59.904;10.738;2022-10-16T14:28:22;2.53;;;0.77;;
74293;SDS011;64044;59.904;10.738;2022-10-16T14:30:49;1.80;;;0.70;;
74293;SDS011;64044;59.904;10.738;2022-10-16T14:33:24;3.63;;;0.95;;
74293;SDS011;64044;59.904;10.738;2022-10-16T14:38:24;5.30;;;0.85;;
74293;SDS011;64044;59.904;10.738;2022-10-16T14:40:50;2.00;;;0.63;;
74293;SDS011;64044;59.904;10.738;2022-10-16T14:43:22;1.77;;;0.47;;
74293;SDS011;64044;59.904;10.738;2022-10-16T14:46:01;1.98;;;0.60;;
74293;SDS011;64044;59.904;10.738;2022-10-16T14:48:30;2.22;;;0.80;;
74293;SDS011;64044;59.904;10.738;2022-10-16T14:50:56;1.27;;;0.40;;
74293;SDS011;64044;59.904;10.738;2022-10-16T14:53:21;2.47;;;0.43;;
74293;SDS011;64044;59.904;10.738;2022-10-16T14:55:47;2.17;;;0.80;;
74293;SDS011;64044;59.904;10.738;2022-10-16T14:58:14;2.33;;;0.50;;
74293;SDS011;64044;59.904;10.738;2022-10-16T15:00:47;2.55;;;0.57;;
74293;SDS011;64044;59.904;10.738;2022-10-16T15:03:14;1.52;;;0.70;;
74293;SDS011;64044;59.904;10.738;2022-10-16T15:05:40;1.17;;;0.50;;
74293;SDS011;64044;59.904;10.738;2022-10-16T15:08:06;2.83;;;1.17;;
74293;SDS011;64044;59.904;10.738;2022-10-16T15:10:33;1.58;;;0.70;;
74293;SDS011;64044;59.904;10.738;2022-10-16T15:13:03;2.05;;;0.50;;
74293;SDS011;64044;59.904;10.738;2022-10-16T15:15:33;3.03;;;0.60;;
74293;SDS011;64044;59.904;10.738;2022-10-16T15:18:00;2.88;;;0.60;;
74293;SDS011;64044;59.904;10.738;2022-10-16T15:20:28;1.42;;;0.70;;
74293;SDS011;64044;59.904;10.738;2022-10-16T15:22:59;3.05;;;0.65;;
74293;SDS011;64044;59.904;10.738;2022-10-16T15:28:07;0.73;;;0.50;;
74293;SDS011;64044;59.904;10.738;2022-10-16T15:30:33;1.27;;;0.55;;
74293;SDS011;64044;59.904;10.738;2022-10-16T15:33:00;1.50;;;0.80;;
74293;SDS011;64044;59.904;10.738;2022-10-16T15:35:26;1.65;;;0.55;;
74293;SDS011;64044;59.904;10.738;2022-10-16T15:37:52;1.10;;;0.40;;
74293;SDS011;64044;59.904;10.738;2022-10-16T15:40:18;3.28;;;0.60;;
74293;SDS011;64044;59.904;10.738;2022-10-16T15:42:44;1.02;;;0.57;;
74293;SDS011;64044;59.904;10.738;2022-10-16T15:45:10;2.25;;;0.70;;
74293;SDS011;64044;59.904;10.738;2022-10-16T15:47:37;1.42;;;0.70;;
74293;SDS011;64044;59.904;10.738;2022-10-16T15:50:03;0.50;;;0.40;;
74293;SDS011;64044;59.904;10.738;2022-10-16T15:52:30;0.65;;;0.40;;
74293;SDS011;64044;59.904;10.738;2022-10-16T15:54:57;2.13;;;0.45;;
74293;SDS011;64044;59.904;10.738;2022-10-16T15:57:23;1.27;;;0.63;;
74293;SDS011;64044;59.904;10.738;2022-10-16T15:59:49;1.65;;;0.70;;
74293;SDS011;64044;59.904;10.738;2022-10-16T16:02:15;2.72;;;0.28;;
74293;SDS011;64044;59.904;10.738;2022-10-16T16:04:40;4.63;;;0.80;;
74293;SDS011;64044;59.904;10.738;2022-10-16T16:07:06;0.45;;;0.40;;
74293;SDS011;64044;59.904;10.738;2022-10-16T16:09:33;0.85;;;0.40;;
74293;SDS011;64044;59.904;10.738;2022-10-16T16:11:58;0.82;;;0.40;;
74293;SDS011;64044;59.904;10.738;2022-10-16T16:14:26;0.60;;;0.40;;
74293;SDS011;64044;59.904;10.738;2022-10-16T16:16:53;2.03;;;0.70;;
74293;SDS011;64044;59.904;10.738;2022-10-16T16:19:19;0.68;;;0.30;;
74293;SDS011;64044;59.904;10.738;2022-10-16T16:21:46;2.10;;;0.60;;
74293;SDS011;64044;59.904;10.738;2022-10-16T16:24:12;1.75;;;0.38;;
74293;SDS011;64044;59.904;10.738;2022-10-16T16:26:38;1.40;;;0.40;;
74293;SDS011;64044;59.904;10.738;2022-10-16T16:29:08;0.55;;;0.32;;
74293;SDS011;64044;59.904;10.738;2022-10-16T16:31:38;1.27;;;0.50;;
74293;SDS011;64044;59.904;10.738;2022-10-16T16:34:05;0.80;;;0.45;;
74293;SDS011;64044;59.904;10.738;2022-10-16T16:36:31;2.30;;;0.50;;
74293;SDS011;64044;59.904;10.738;2022-10-16T16:38:57;0.85;;;0.50;;
74293;SDS011;64044;59.904;10.738;2022-10-16T16:41:24;3.03;;;0.82;;
74293;SDS011;64044;59.904;10.738;2022-10-16T16:43:51;3.92;;;0.60;;
74293;SDS011;64044;59.904;10.738;2022-10-16T16:46:18;1.83;;;0.50;;
74293;SDS011;64044;59.904;10.738;2022-10-16T16:48:44;1.30;;;0.60;;
74293;SDS011;64044;59.904;10.738;2022-10-16T16:51:12;1.98;;;0.50;;
74293;SDS011;64044;59.904;10.738;2022-10-16T16:53:44;2.92;;;0.68;;
74293;SDS011;64044;59.904;10.738;2022-10-16T16:56:11;2.75;;;0.55;;
74293;SDS011;64044;59.904;10.738;2022-10-16T16:58:37;3.15;;;0.65;;
74293;SDS011;64044;59.904;10.738;2022-10-16T17:01:03;2.58;;;0.63;;
74293;SDS011;64044;59.904;10.738;2022-10-16T17:03:30;1.48;;;0.73;;
74293;SDS011;64044;59.904;10.738;2022-10-16T17:05:57;2.22;;;0.90;;
74293;SDS011;64044;59.904;10.738;2022-10-16T17:08:27;3.20;;;0.70;;
74293;SDS011;64044;59.904;10.738;2022-10-16T17:10:54;5.53;;;0.90;;
74293;SDS011;64044;59.904;10.738;2022-10-16T17:13:22;1.83;;;0.88;;
74293;SDS011;64044;59.904;10.738;2022-10-16T17:15:51;2.20;;;1.00;;
74293;SDS011;64044;59.904;10.738;2022-10-16T17:18:18;5.82;;;0.98;;
74293;SDS011;64044;59.904;10.738;2022-10-16T17:20:45;3.45;;;1.30;;
74293;SDS011;64044;59.904;10.738;2022-10-16T17:23:12;2.13;;;0.90;;
74293;SDS011;64044;59.904;10.738;2022-10-16T17:25:38;2.70;;;1.02;;